Time;durP1;ratioP1;P1;durP2;ratioP2;P2;SDS_P1;SDS_P2;PMS_P1;PMS_P2;Temp;Humidity;BMP_temperature;BMP_pressure;BME280_temperature;BME280_humidity;BME280_pressure;Samples;Min_cycle;Max_cycle;Signal;HPM_P1;HPM_P2
2022/06/03 00:00:09;;;;;;;;;4.25;4.25;;;;;22.41;34.37;100941.78;2015255;29;47599;-60
2022/06/03 00:01:25;;;;;;;;;6.00;5.20;;;;;22.41;34.15;100944.50;2011562;29;47634;-61
2022/06/03 00:02:53;;;;;;;;;3.40;3.00;;;;;22.40;34.44;100939.19;2010265;29;47633;-61
2022/06/03 00:04:33;;;;;;;;;5.80;5.20;;;;;22.40;34.23;100939.19;2018115;29;47818;-60
2022/06/03 00:05:44;;;;;;;;;3.60;3.60;;;;;22.38;34.43;100938.44;2018525;29;47882;-60
2022/06/03 00:06:53;;;;;;;;;4.60;4.60;;;;;22.38;34.49;100935.72;2013633;29;47795;-60
2022/06/03 00:07:56;;;;;;;;;3.00;3.00;;;;;22.36;34.53;100943.06;2024057;29;47517;-61
2022/06/03 00:09:27;;;;;;;;;3.00;3.00;;;;;22.36;34.41;100943.94;2022385;29;47835;-61
2022/06/03 00:10:46;;;;;;;;;4.00;4.00;;;;;22.36;34.71;100945.75;2030243;28;47978;-61
2022/06/03 00:12:23;;;;;;;;;5.80;5.00;;;;;22.35;34.59;100944.88;2044114;28;48108;-59
2022/06/03 00:13:47;;;;;;;;;2.50;2.50;;;;;22.32;34.98;100947.81;2021982;29;47629;-61
2022/06/03 00:15:06;;;;;;;;;3.80;3.80;;;;;22.31;34.71;100944.25;2022468;28;47727;-60
2022/06/03 00:16:28;;;;;;;;;3.25;3.25;;;;;22.29;35.02;100932.66;2029660;28;47660;-60
2022/06/03 00:17:40;;;;;;;;;4.20;4.20;;;;;22.27;34.90;100933.75;2029354;29;47432;-60
2022/06/03 00:18:51;;;;;;;;;2.80;2.80;;;;;22.27;35.00;100922.94;2032256;28;47508;-61
2022/06/03 00:20:05;;;;;;;;;4.00;4.00;;;;;22.26;34.99;100922.06;2030034;28;48015;-61
2022/06/03 00:21:09;;;;;;;;;4.00;4.00;;;;;22.26;34.50;100924.75;2029474;28;47915;-59
2022/06/03 00:22:12;;;;;;;;;4.00;4.00;;;;;22.26;34.39;100929.31;2029887;28;47765;-60
2022/06/03 00:23:43;;;;;;;;;3.50;3.50;;;;;22.25;34.67;100927.56;2030025;28;47603;-61
2022/06/03 00:24:58;;;;;;;;;3.80;3.80;;;;;22.25;34.58;100928.44;2030479;28;48036;-61
2022/06/03 00:26:17;;;;;;;;;2.00;2.00;;;;;22.24;34.90;100925.84;2044709;28;47958;-60
2022/06/03 00:27:20;;;;;;;;;3.40;3.40;;;;;22.24;34.98;100932.13;2044849;28;47671;-60
2022/06/03 00:28:54;;;;;;;;;5.60;3.80;;;;;22.23;34.48;100930.38;2045720;28;47971;-60
2022/06/03 00:30:14;;;;;;;;;3.00;3.00;;;;;22.23;35.06;100930.38;2045270;28;48025;-61
2022/06/03 00:31:38;;;;;;;;;3.40;3.40;;;;;22.22;34.79;100927.75;2045585;28;47852;-60
2022/06/03 00:33:02;;;;;;;;;1.60;1.60;;;;;22.21;34.96;100931.44;2048117;28;47708;-61
2022/06/03 00:34:06;;;;;;;;;3.00;3.00;;;;;22.21;35.19;100935.00;2063916;28;47886;-60
2022/06/03 00:35:18;;;;;;;;;3.20;3.20;;;;;22.20;34.77;100930.56;2076220;28;47600;-61
2022/06/03 00:36:40;;;;;;;;;3.60;3.60;;;;;22.20;34.52;100927.00;2077149;28;47418;-60
2022/06/03 00:37:57;;;;;;;;;3.20;3.20;;;;;22.18;34.84;100928.94;2063905;28;47575;-60
2022/06/03 00:39:08;;;;;;;;;5.20;5.20;;;;;22.17;35.03;100919.09;2061474;28;46656;-60
2022/06/03 00:40:27;;;;;;;;;4.00;4.00;;;;;22.16;34.53;100926.34;2054415;28;47850;-60
2022/06/03 00:41:38;;;;;;;;;3.00;3.00;;;;;22.17;34.90;100921.81;2054883;28;47700;-60
2022/06/03 00:43:04;;;;;;;;;2.00;2.00;;;;;22.16;34.49;100917.38;2053756;28;47859;-61
2022/06/03 00:44:10;;;;;;;;;3.60;3.60;;;;;22.16;35.23;100922.78;2046929;28;47669;-60
2022/06/03 00:45:38;;;;;;;;;2.80;2.80;;;;;22.15;34.55;100921.91;2060425;28;48201;-61
2022/06/03 00:46:50;;;;;;;;;3.60;3.60;;;;;22.14;34.90;100922.00;2055878;28;47645;-61
2022/06/03 00:48:20;;;;;;;;;4.40;3.60;;;;;22.14;35.20;100919.31;2055535;28;48141;-61
2022/06/03 00:49:42;;;;;;;;;3.60;3.60;;;;;22.12;34.61;100921.25;2053739;28;47892;-61
2022/06/03 00:50:49;;;;;;;;;4.00;4.00;;;;;22.10;34.99;100924.03;2056839;28;47922;-61
2022/06/03 00:51:55;;;;;;;;;4.00;4.00;;;;;22.08;35.16;100923.28;2078189;28;47541;-61
2022/06/03 00:53:45;;;;;;;;;5.20;3.80;;;;;22.04;34.89;100917.19;2077755;28;47915;-60
2022/06/03 00:54:55;;;;;;;;;4.80;3.20;;;;;22.03;35.33;100928.09;2053692;28;46664;-61
2022/06/03 00:56:21;;;;;;;;;5.00;4.00;;;;;22.01;35.22;100925.50;2053642;28;47733;-61
2022/06/03 00:57:36;;;;;;;;;1.80;1.80;;;;;22.00;34.91;100922.91;2052959;28;48212;-61
2022/06/03 00:58:44;;;;;;;;;3.80;3.80;;;;;21.98;35.42;100923.00;2053932;28;47531;-60
2022/06/03 00:59:54;;;;;;;;;2.20;2.20;;;;;21.97;34.92;100934.75;2053082;28;47710;-60
2022/06/03 01:01:04;;;;;;;;;5.00;5.00;;;;;21.96;34.93;100929.44;2054415;28;47684;-59
2022/06/03 01:02:17;;;;;;;;;2.80;2.80;;;;;21.95;35.30;100933.13;2054250;28;45719;-59
2022/06/03 01:03:53;;;;;;;;;2.60;2.60;;;;;21.93;35.27;100924.25;2053862;28;47289;-61
2022/06/03 01:05:02;;;;;;;;;3.00;3.00;;;;;21.90;35.59;100928.03;2053718;28;48103;-60
2022/06/03 01:06:12;;;;;;;;;2.20;2.20;;;;;21.90;35.10;100930.75;2053406;28;47696;-60
2022/06/03 01:07:50;;;;;;;;;4.20;4.20;;;;;21.89;35.65;100928.13;2053962;28;47620;-60
2022/06/03 01:09:07;;;;;;;;;4.00;4.00;;;;;21.89;35.45;100931.72;2045622;28;47966;-60
2022/06/03 01:10:35;;;;;;;;;3.20;3.00;;;;;21.88;35.36;100932.69;2047585;28;47669;-61
2022/06/03 01:12:10;;;;;;;;;4.40;4.40;;;;;21.87;35.27;100935.47;2078069;28;48150;-60
2022/06/03 01:13:39;;;;;;;;;3.20;3.20;;;;;21.87;35.25;100930.06;2059789;28;47905;-60
2022/06/03 01:14:59;;;;;;;;;3.00;3.00;;;;;21.87;35.08;100924.69;2068893;28;48112;-60
2022/06/03 01:16:27;;;;;;;;;4.00;4.00;;;;;21.86;35.33;100929.22;2077907;28;46577;-60
2022/06/03 01:17:33;;;;;;;;;3.00;3.00;;;;;21.87;35.18;100925.53;2075986;28;48259;-60
2022/06/03 01:19:01;;;;;;;;;3.00;3.00;;;;;21.87;35.22;100927.38;2077847;28;47708;-60
2022/06/03 01:20:18;;;;;;;;;2.20;2.20;;;;;21.85;35.00;100923.88;2077956;28;47477;-60
2022/06/03 01:21:28;;;;;;;;;3.80;3.80;;;;;21.85;34.90;100923.88;2077931;28;47581;-60
2022/06/03 01:22:53;;;;;;;;;5.00;3.20;;;;;21.82;35.36;100919.56;2077009;28;47669;-60
2022/06/03 01:24:31;;;;;;;;;2.80;2.80;;;;;21.80;34.91;100926.91;2075672;28;47693;-60
2022/06/03 01:25:40;;;;;;;;;4.80;4.80;;;;;21.79;34.86;100927.88;2075529;28;47723;-60
2022/06/03 01:26:53;;;;;;;;;4.00;4.00;;;;;21.80;35.01;100926.03;2078698;28;47973;-60
2022/06/03 01:28:08;;;;;;;;;3.00;3.00;;;;;21.79;34.95;100924.28;2078787;28;47541;-60
2022/06/03 01:29:29;;;;;;;;;3.80;3.80;;;;;21.77;35.05;100926.22;2079737;28;47633;-60
2022/06/03 01:30:48;;;;;;;;;5.00;5.00;;;;;21.77;35.46;100923.53;2079304;28;47834;-60
2022/06/03 01:31:52;;;;;;;;;3.00;3.00;;;;;21.76;35.36;100925.38;2092004;28;47849;-60
2022/06/03 01:33:02;;;;;;;;;2.40;2.20;;;;;21.75;35.23;100926.34;2096584;28;47740;-59
2022/06/03 01:34:08;;;;;;;;;4.00;4.00;;;;;21.74;35.59;100930.88;2095889;28;47723;-59
2022/06/03 01:35:35;;;;;;;;;5.20;5.20;;;;;21.73;35.32;100922.88;2097252;28;47612;-59
2022/06/03 01:36:59;;;;;;;;;4.00;3.80;;;;;21.74;35.57;100922.78;2098655;28;48157;-59
2022/06/03 01:38:17;;;;;;;;;4.80;3.80;;;;;21.73;35.33;100918.34;2098286;28;47879;-60
2022/06/03 01:39:56;;;;;;;;;2.80;2.80;;;;;21.72;35.40;100918.41;2097206;28;47467;-60
2022/06/03 01:41:13;;;;;;;;;2.40;1.40;;;;;21.72;35.46;100918.41;2096946;28;48129;-59
2022/06/03 01:42:36;;;;;;;;;5.80;5.80;;;;;21.70;35.73;100920.34;2096752;28;48259;-59
2022/06/03 01:44:02;;;;;;;;;4.80;4.80;;;;;21.69;35.87;100919.47;2096927;28;47562;-61
2022/06/03 01:45:37;;;;;;;;;4.20;3.60;;;;;21.68;35.45;100919.59;2095660;28;47332;-60
2022/06/03 01:47:04;;;;;;;;;5.20;5.00;;;;;21.67;35.86;100920.56;2096904;28;47784;-60
2022/06/03 01:48:16;;;;;;;;;5.60;5.00;;;;;21.66;35.54;100919.69;2094321;28;47998;-60
2022/06/03 01:49:38;;;;;;;;;3.75;3.75;;;;;21.65;35.99;100909.84;2095493;28;48388;-60
2022/06/03 01:51:14;;;;;;;;;2.75;2.75;;;;;21.64;35.48;100912.66;2088669;28;47988;-60
2022/06/03 01:52:50;;;;;;;;;6.00;6.00;;;;;21.61;35.42;100908.31;2088669;28;47998;-60
2022/06/03 01:53:56;;;;;;;;;4.25;4.25;;;;;21.59;35.61;100903.97;2088544;28;47273;-60
2022/06/03 01:55:34;;;;;;;;;4.25;4.25;;;;;21.58;35.48;100904.94;2095092;28;47914;-60
2022/06/03 01:57:00;;;;;;;;;4.50;4.50;;;;;21.57;35.74;100903.19;2096628;28;48131;-60
2022/06/03 01:58:28;;;;;;;;;3.80;3.80;;;;;21.56;35.95;100893.38;2096776;28;47943;-61
2022/06/03 02:00:03;;;;;;;;;4.00;4.00;;;;;21.55;35.77;100891.63;2095395;28;47826;-61
2022/06/03 02:01:46;;;;;;;;;4.50;4.50;;;;;21.53;35.95;100897.13;2093194;28;48108;-60
2022/06/03 02:03:09;;;;;;;;;3.00;3.00;;;;;21.52;35.63;100894.53;2095142;28;48406;-60
2022/06/03 02:04:40;;;;;;;;;3.50;2.75;;;;;21.50;36.19;100894.66;2094404;28;47397;-61
2022/06/03 02:05:59;;;;;;;;;5.00;4.80;;;;;21.48;36.05;100899.28;2097039;28;47716;-61
2022/06/03 02:07:16;;;;;;;;;4.00;4.00;;;;;21.48;36.08;100898.41;2091500;28;47641;-61
2022/06/03 02:08:42;;;;;;;;;4.00;4.00;;;;;21.45;36.29;100892.22;2104047;28;47494;-60
2022/06/03 02:10:04;;;;;;;;;3.40;3.20;;;;;21.44;36.28;100893.19;2097074;28;47508;-60
2022/06/03 02:11:48;;;;;;;;;3.20;3.20;;;;;21.43;36.40;100893.28;2100055;28;48271;-60
2022/06/03 02:13:13;;;;;;;;;3.60;3.60;;;;;21.42;36.21;100886.16;2099569;28;47812;-60
2022/06/03 02:14:22;;;;;;;;;3.25;2.50;;;;;21.41;36.47;100879.03;2101452;28;47884;-60
2022/06/03 02:15:41;;;;;;;;;7.00;5.20;;;;;21.40;36.14;100877.28;2105344;28;47716;-60
2022/06/03 02:17:09;;;;;;;;;4.75;4.50;;;;;21.39;36.02;100875.56;2104499;28;47988;-61
2022/06/03 02:18:49;;;;;;;;;5.20;4.40;;;;;21.37;35.99;100872.09;2099891;28;47686;-61
2022/06/03 02:20:15;;;;;;;;;3.50;3.50;;;;;21.35;36.31;100869.50;2054320;28;48210;-61
2022/06/03 02:21:34;;;;;;;;;6.00;6.00;;;;;21.32;36.47;100864.28;2055127;28;47954;-60
2022/06/03 02:22:59;;;;;;;;;3.40;3.40;;;;;21.29;36.42;100869.00;2054693;28;47615;-61
2022/06/03 02:24:32;;;;;;;;;5.00;4.00;;;;;21.24;36.70;100865.72;2054449;28;47646;-61
2022/06/03 02:26:09;;;;;;;;;3.75;3.75;;;;;21.23;36.49;100861.28;2046914;28;47894;-60
2022/06/03 02:27:22;;;;;;;;;4.20;4.00;;;;;21.22;36.28;100863.13;2054892;28;47911;-60
2022/06/03 02:28:47;;;;;;;;;4.20;4.20;;;;;21.21;36.51;100855.97;2053980;28;47591;-61
2022/06/03 02:31:24;;;;;;;;;4.25;4.00;;;;;21.17;36.76;100846.34;2054173;28;47441;-60
2022/06/03 02:32:37;;;;;;;;;5.25;4.75;;;;;21.16;36.50;100850.00;2053993;28;47935;-60
2022/06/03 02:34:09;;;;;;;;;5.00;5.00;;;;;21.16;36.28;100848.16;2047462;28;45354;-59
2022/06/03 02:35:31;;;;;;;;;5.25;4.00;;;;;21.15;36.84;100848.28;2053877;28;47665;-60
2022/06/03 02:37:16;;;;;;;;;3.50;3.50;;;;;21.14;36.51;100849.22;2055704;28;47515;-59
2022/06/03 02:38:47;;;;;;;;;4.00;4.00;;;;;21.13;36.56;100850.19;2022190;29;47831;-60
2022/06/03 02:40:01;;;;;;;;;4.00;4.00;;;;;21.11;36.89;100852.13;2015209;29;47847;-60
2022/06/03 02:41:31;;;;;;;;;4.75;3.25;;;;;21.08;36.79;100847.78;2013942;29;45959;-59
2022/06/03 02:42:43;;;;;;;;;3.75;3.75;;;;;21.07;36.86;100847.88;2016966;29;47355;-60
2022/06/03 02:44:14;;;;;;;;;4.00;4.00;;;;;21.03;36.97;100841.81;2025081;29;47027;-59
2022/06/03 02:45:48;;;;;;;;;4.00;4.00;;;;;21.01;36.97;100843.75;2024004;29;48206;-61
2022/06/03 02:46:52;;;;;;;;;3.50;3.50;;;;;20.99;36.90;100840.28;2022999;29;47727;-60
2022/06/03 02:48:30;;;;;;;;;4.00;4.00;;;;;20.99;36.84;100842.97;2022190;29;48082;-60
2022/06/03 02:50:02;;;;;;;;;4.75;4.75;;;;;20.97;36.63;100842.22;2015233;29;48396;-60
2022/06/03 02:51:30;;;;;;;;;5.00;4.00;;;;;20.97;36.75;100836.81;2013231;29;47823;-60
2022/06/03 02:52:45;;;;;;;;;4.25;4.25;;;;;20.96;36.54;100836.88;2023938;29;48207;-60
2022/06/03 02:54:10;;;;;;;;;4.75;4.75;;;;;20.96;36.97;100839.59;2022532;29;47619;-62
2022/06/03 02:55:19;;;;;;;;;4.25;4.25;;;;;20.94;36.93;100838.81;2022717;29;47855;-60
2022/06/03 02:56:51;;;;;;;;;5.50;5.50;;;;;20.92;36.94;100836.22;2017866;29;48154;-60
2022/06/03 02:58:28;;;;;;;;;5.75;5.75;;;;;20.91;36.94;100826.41;2063197;28;48029;-60
2022/06/03 03:00:01;;;;;;;;;5.00;5.00;;;;;20.87;37.32;100830.25;2064289;28;48311;-61
2022/06/03 03:01:39;;;;;;;;;6.00;6.00;;;;;20.85;37.20;100830.38;2046388;28;47544;-60
2022/06/03 03:03:23;;;;;;;;;5.00;5.00;;;;;20.85;37.36;100821.41;2054202;28;47915;-61
2022/06/03 03:04:43;;;;;;;;;5.25;5.25;;;;;20.85;37.06;100826.81;2037930;28;47878;-60
2022/06/03 03:06:20;;;;;;;;;4.60;4.60;;;;;20.83;37.39;100829.59;2052341;28;47055;-58
2022/06/03 03:07:42;;;;;;;;;5.00;4.25;;;;;20.83;37.33;100824.19;2053808;28;46730;-60
2022/06/03 03:09:08;;;;;;;;;6.50;4.00;;;;;20.83;37.21;100824.19;2046377;28;48197;-60
2022/06/03 03:10:23;;;;;;;;;3.75;3.75;;;;;20.82;37.11;100821.56;2054483;28;47331;-61
2022/06/03 03:11:41;;;;;;;;;4.75;4.75;;;;;20.82;37.34;100818.88;2053879;28;47932;-60
2022/06/03 03:12:51;;;;;;;;;6.40;6.40;;;;;20.82;37.45;100821.56;2053366;28;47640;-61
2022/06/03 03:14:15;;;;;;;;;5.25;5.25;;;;;20.80;37.61;100815.41;2047926;28;47624;-61
2022/06/03 03:15:29;;;;;;;;;6.00;5.50;;;;;20.78;37.59;100823.59;2071097;28;47571;-61
2022/06/03 03:16:57;;;;;;;;;5.25;5.25;;;;;20.79;37.57;100825.34;2064045;28;47706;-61
2022/06/03 03:18:32;;;;;;;;;4.75;4.75;;;;;20.78;37.43;100825.44;2062978;28;47790;-61
2022/06/03 03:19:35;;;;;;;;;4.75;4.75;;;;;20.77;37.40;100829.09;2067803;28;47721;-61
2022/06/03 03:20:45;;;;;;;;;5.25;5.25;;;;;20.77;37.72;100826.41;2070717;28;48029;-61
2022/06/03 03:22:18;;;;;;;;;4.25;4.25;;;;;20.77;37.59;100827.25;2061824;28;47405;-62
2022/06/03 03:23:55;;;;;;;;;5.75;5.75;;;;;20.77;37.16;100826.41;2066306;28;47821;-61
2022/06/03 03:25:29;;;;;;;;;14.20;13.40;;;;;20.78;37.28;100825.44;2064607;28;47977;-61
2022/06/03 03:26:40;;;;;;;;;6.50;6.50;;;;;20.76;37.54;100824.66;2066853;28;47734;-61
2022/06/03 03:27:56;;;;;;;;;6.25;5.00;;;;;20.76;37.18;100830.06;2070287;28;48129;-61
2022/06/03 03:29:07;;;;;;;;;5.00;4.75;;;;;20.74;37.60;100829.28;2073768;28;48355;-60
2022/06/03 03:30:16;;;;;;;;;4.00;4.00;;;;;20.72;37.31;100833.91;2076300;28;47640;-60
2022/06/03 03:31:34;;;;;;;;;5.00;5.00;;;;;20.69;37.23;100829.56;2062420;28;47846;-60
2022/06/03 03:32:53;;;;;;;;;5.50;5.50;;;;;20.70;37.69;100834.00;2066061;28;48273;-60
2022/06/03 03:34:25;;;;;;;;;4.75;4.75;;;;;20.71;37.41;100838.44;2072869;28;47348;-60
2022/06/03 03:35:52;;;;;;;;;4.25;4.25;;;;;20.72;37.54;100832.09;2072061;28;48065;-60
2022/06/03 03:37:14;;;;;;;;;4.25;4.25;;;;;20.73;37.63;100839.22;2068343;28;48052;-60
2022/06/03 03:38:41;;;;;;;;;8.60;8.00;;;;;20.74;37.54;100840.09;2083713;28;48078;-60
2022/06/03 03:39:51;;;;;;;;;5.00;5.00;;;;;20.73;37.68;100832.97;2096983;28;48082;-60
2022/06/03 03:41:09;;;;;;;;;5.75;5.75;;;;;20.73;37.23;100835.66;2096565;28;48088;-61
2022/06/03 03:42:28;;;;;;;;;4.00;3.75;;;;;20.71;37.43;100822.28;2101724;28;47630;-60
2022/06/03 03:43:58;;;;;;;;;5.00;5.00;;;;;20.73;37.83;100824.88;2099699;28;47884;-60
2022/06/03 03:45:22;;;;;;;;;6.00;6.00;;;;;20.74;37.63;100818.50;2085763;28;47915;-60
2022/06/03 03:46:58;;;;;;;;;2.75;2.50;;;;;20.76;37.52;100821.97;2092676;27;47389;-59
2022/06/03 03:48:22;;;;;;;;;4.00;4.00;;;;;20.77;37.47;100824.56;2104168;27;47765;-60
2022/06/03 03:50:00;;;;;;;;;4.00;4.00;;;;;20.79;37.74;100828.03;2112844;27;48502;-60
2022/06/03 03:51:10;;;;;;;;;5.00;5.00;;;;;20.80;37.64;100824.38;2090020;28;46766;-59
2022/06/03 03:52:48;;;;;;;;;6.00;6.00;;;;;20.83;37.85;100823.31;2096545;27;47973;-59
2022/06/03 03:54:10;;;;;;;;;4.50;4.50;;;;;20.82;38.02;100817.03;2102778;28;47577;-59
2022/06/03 03:55:52;;;;;;;;;4.75;4.75;;;;;20.84;37.66;100814.28;2111224;27;48190;-58
2022/06/03 03:57:10;;;;;;;;;4.50;4.50;;;;;20.86;37.42;100821.31;2070279;28;47571;-57
2022/06/03 03:58:38;;;;;;;;;4.00;4.00;;;;;20.88;37.49;100828.44;2070094;28;47507;-59
2022/06/03 03:59:54;;;;;;;;;6.00;5.50;;;;;20.89;37.92;100827.47;2069603;28;47469;-59
2022/06/03 04:01:13;;;;;;;;;5.60;5.60;;;;;20.89;37.49;100822.94;2070259;28;47754;-59
2022/06/03 04:02:31;;;;;;;;;4.20;3.60;;;;;20.90;37.53;100823.81;2068838;28;47969;-59
2022/06/03 04:03:47;;;;;;;;;7.40;7.40;;;;;20.91;37.90;100829.09;2067724;28;47493;-60
2022/06/03 04:05:06;;;;;;;;;5.60;5.60;;;;;20.93;37.74;100826.28;2069938;28;47410;-59
2022/06/03 04:06:28;;;;;;;;;7.00;7.00;;;;;20.95;37.85;100827.06;2068232;28;47637;-59
2022/06/03 04:07:43;;;;;;;;;5.75;5.75;;;;;20.95;37.73;100830.63;2070113;28;47427;-59
2022/06/03 04:08:59;;;;;;;;;6.50;6.50;;;;;20.97;37.92;100830.56;2069631;28;48094;-59
2022/06/03 04:10:21;;;;;;;;;5.00;5.00;;;;;20.97;37.58;100833.25;2061799;28;47475;-57
2022/06/03 04:11:51;;;;;;;;;6.00;6.00;;;;;20.97;37.37;100831.44;2063839;28;45751;-58
2022/06/03 04:13:30;;;;;;;;;7.00;7.00;;;;;20.98;37.36;100837.69;2064056;28;47682;-59
2022/06/03 04:15:24;;;;;;;;;6.00;6.00;;;;;20.98;37.41;100843.94;2067799;28;48142;-58
2022/06/03 04:16:43;;;;;;;;;6.25;5.50;;;;;20.98;37.75;100829.59;2046001;28;47896;-60
2022/06/03 04:18:10;;;;;;;;;5.25;5.25;;;;;20.98;37.46;100829.59;2042860;28;47567;-58
2022/06/03 04:19:19;;;;;;;;;3.00;3.00;;;;;20.99;37.46;100831.31;2029780;29;48050;-61
2022/06/03 04:20:47;;;;;;;;;5.25;5.25;;;;;20.97;37.41;100833.25;2029275;29;47586;-58
2022/06/03 04:22:15;;;;;;;;;4.25;4.25;;;;;20.95;37.88;100832.47;2029314;29;47986;-60
2022/06/03 04:23:34;;;;;;;;;5.20;5.20;;;;;20.94;37.41;100830.72;2029609;29;47778;-59
2022/06/03 04:25:19;;;;;;;;;4.25;4.25;;;;;20.91;37.87;100831.78;2029951;29;46809;-58
2022/06/03 04:26:20;;;;;;;;;5.75;5.50;;;;;20.89;37.69;100836.41;2016089;29;47703;-57
2022/06/03 04:27:58;;;;;;;;;7.67;5.67;;;;;20.88;38.00;100829.28;2021309;29;48078;-58
2022/06/03 04:29:39;;;;;;;;;8.00;8.00;;;;;20.86;37.63;100826.69;2022513;29;47696;-57
2022/06/03 04:30:54;;;;;;;;;6.00;6.00;;;;;20.87;37.90;100824.88;2022169;29;48313;-59
2022/06/03 04:32:03;;;;;;;;;6.60;6.60;;;;;20.87;37.90;100819.47;2021982;29;46900;-59
2022/06/03 04:33:22;;;;;;;;;5.50;5.50;;;;;20.87;37.84;100819.47;2021214;29;47643;-58
2022/06/03 04:34:50;;;;;;;;;5.75;5.75;;;;;20.88;37.55;100823.03;2018482;29;48087;-59
2022/06/03 04:36:28;;;;;;;;;4.25;4.25;;;;;20.88;37.59;100823.03;2006768;29;48296;-58
2022/06/03 04:38:06;;;;;;;;;5.00;5.00;;;;;20.87;37.90;100816.78;2013564;29;47802;-61
2022/06/03 04:39:40;;;;;;;;;5.75;5.75;;;;;20.89;37.92;100822.06;2014401;29;47705;-58
2022/06/03 04:41:19;;;;;;;;;4.25;4.25;;;;;20.89;37.93;100822.06;2013709;29;47513;-58
2022/06/03 04:42:49;;;;;;;;;7.25;7.25;;;;;20.88;37.60;100829.28;2013303;29;47726;-59
2022/06/03 04:44:06;;;;;;;;;5.25;5.00;;;;;20.89;37.89;100835.56;2015668;29;47705;-60
2022/06/03 04:45:12;;;;;;;;;5.00;4.25;;;;;20.89;37.92;100838.25;2010618;29;47236;-58
2022/06/03 04:46:55;;;;;;;;;6.50;6.50;;;;;20.90;37.73;100834.59;2007079;29;48405;-59
2022/06/03 04:48:01;;;;;;;;;5.50;5.50;;;;;20.90;37.59;100842.69;2013121;29;47870;-60
2022/06/03 04:49:02;;;;;;;;;4.75;4.75;;;;;20.90;37.71;100831.88;2013860;29;47539;-60
2022/06/03 04:50:46;;;;;;;;;4.67;4.67;;;;;20.90;37.65;100837.28;2013312;29;47975;-61
2022/06/03 04:52:22;;;;;;;;;5.00;5.00;;;;;20.90;37.80;100831.88;2014114;29;47502;-58
2022/06/03 04:53:50;;;;;;;;;8.00;8.00;;;;;20.90;38.18;100837.28;2014526;29;47946;-60
2022/06/03 04:55:12;;;;;;;;;4.50;4.50;;;;;20.91;38.32;100830.94;2027907;28;48072;-59
2022/06/03 04:57:09;;;;;;;;;5.00;5.00;;;;;20.91;38.09;100834.50;2029744;28;47795;-59
2022/06/03 04:58:46;;;;;;;;;5.50;5.50;;;;;20.93;38.05;100834.38;2012436;29;47797;-59
2022/06/03 05:00:16;;;;;;;;;5.25;5.25;;;;;20.93;37.79;100840.66;2019680;29;47741;-60
2022/06/03 05:01:44;;;;;;;;;8.00;8.00;;;;;20.95;37.77;100844.13;2016305;29;48213;-59
2022/06/03 05:03:21;;;;;;;;;5.25;5.25;;;;;20.94;38.17;100833.41;2014269;29;47679;-59
2022/06/03 05:04:28;;;;;;;;;3.25;3.25;;;;;20.95;38.25;100837.84;2025893;29;47991;-59
2022/06/03 05:05:31;;;;;;;;;6.00;6.00;;;;;20.93;37.90;100834.38;2038181;28;48354;-59
2022/06/03 05:07:03;;;;;;;;;6.60;6.60;;;;;20.92;37.91;100841.63;2036531;28;48038;-60
2022/06/03 05:08:15;;;;;;;;;6.20;6.20;;;;;20.92;38.00;100843.44;2023468;29;47859;-59
2022/06/03 05:09:40;;;;;;;;;6.60;6.60;;;;;20.91;38.49;100837.19;2033082;28;48081;-59
2022/06/03 05:11:08;;;;;;;;;9.00;6.50;;;;;20.91;38.41;100839.88;2034350;28;47677;-59
2022/06/03 05:12:46;;;;;;;;;6.00;6.00;;;;;20.92;38.30;100835.34;2032242;28;47559;-58
2022/06/03 05:14:11;;;;;;;;;8.80;8.80;;;;;20.92;37.96;100835.34;2031901;28;47608;-59
2022/06/03 05:15:46;;;;;;;;;8.40;7.40;;;;;20.92;38.25;100827.25;2046043;28;47991;-60
2022/06/03 05:17:20;;;;;;;;;7.50;6.75;;;;;20.93;38.17;100820.91;2064041;28;48007;-60
2022/06/03 05:19:04;;;;;;;;;8.50;8.50;;;;;20.94;38.61;100822.63;2059279;28;47660;-60
2022/06/03 05:20:05;;;;;;;;;7.75;7.75;;;;;20.95;38.45;100817.13;2053621;28;47659;-58
2022/06/03 05:21:14;;;;;;;;;7.00;7.00;;;;;20.96;38.47;100818.00;2056295;28;47833;-59
2022/06/03 05:22:49;;;;;;;;;8.00;6.75;;;;;20.97;38.10;100823.31;2065355;28;47603;-59
2022/06/03 05:24:13;;;;;;;;;6.25;6.25;;;;;20.97;38.14;100826.03;2036604;28;47810;-59
2022/06/03 05:25:25;;;;;;;;;6.75;6.75;;;;;20.98;38.19;100829.59;2033879;28;47343;-59
2022/06/03 05:26:25;;;;;;;;;6.25;6.25;;;;;20.97;38.54;100834.13;2035012;28;47482;-58
2022/06/03 05:27:47;;;;;;;;;8.00;8.00;;;;;20.97;38.57;100833.25;2034915;28;48102;-58
2022/06/03 05:29:17;;;;;;;;;7.00;6.25;;;;;20.96;38.24;100824.28;2038984;28;47483;-59
2022/06/03 05:30:54;;;;;;;;;7.25;6.75;;;;;20.97;38.65;100820.63;2037738;28;47529;-60
2022/06/03 05:32:31;;;;;;;;;7.00;7.00;;;;;20.99;38.16;100825.94;2038502;28;47971;-59
2022/06/03 05:33:45;;;;;;;;;7.00;7.00;;;;;21.01;38.36;100832.09;2024055;29;47271;-59
2022/06/03 05:35:12;;;;;;;;;6.00;6.00;;;;;21.02;38.84;100825.72;2051396;28;47677;-58
2022/06/03 05:36:54;;;;;;;;;6.00;5.50;;;;;21.03;38.43;100828.31;2059266;28;47637;-59
2022/06/03 05:38:23;;;;;;;;;5.00;5.00;;;;;21.03;39.03;100827.47;2043453;28;48018;-60
2022/06/03 05:40:02;;;;;;;;;7.00;7.00;;;;;21.02;39.00;100826.59;2020011;29;48325;-60
2022/06/03 05:42:53;;;;;;;;;5.75;5.75;;;;;21.02;38.69;100829.28;2018037;29;47866;-59
2022/06/03 05:44:12;;;;;;;;;6.33;6.33;;;;;21.02;38.56;100829.28;2015683;29;47543;-59
2022/06/03 05:45:33;;;;;;;;;5.50;5.50;;;;;21.04;38.91;100821.09;2020896;29;47751;-59
2022/06/03 05:46:45;;;;;;;;;7.00;7.00;;;;;21.04;38.46;100821.97;2019467;29;47788;-59
2022/06/03 05:47:55;;;;;;;;;5.75;5.75;;;;;21.05;38.52;100812.03;2020578;29;47589;-59
2022/06/03 05:49:31;;;;;;;;;6.00;6.00;;;;;21.07;38.51;100821.75;2022507;29;46545;-60
2022/06/03 05:50:53;;;;;;;;;5.25;5.25;;;;;21.08;38.29;100809.13;2022880;29;47904;-60
2022/06/03 05:52:19;;;;;;;;;5.50;5.00;;;;;21.09;38.65;100805.50;2021586;29;47490;-60
2022/06/03 05:53:50;;;;;;;;;5.50;5.50;;;;;21.10;39.03;100813.50;1999961;29;47476;-60
2022/06/03 05:55:04;;;;;;;;;6.00;6.00;;;;;21.11;39.08;100809.81;1999910;29;47481;-59
2022/06/03 05:56:39;;;;;;;;;7.25;6.75;;;;;21.14;39.12;100811.44;1996970;29;47438;-60
2022/06/03 05:57:53;;;;;;;;;7.75;7.00;;;;;21.15;38.85;100808.66;1999004;29;48153;-59
2022/06/03 05:59:18;;;;;;;;;6.00;6.00;;;;;21.16;38.99;100807.69;1991705;29;47546;-59
2022/06/03 06:00:48;;;;;;;;;6.75;6.00;;;;;21.16;38.75;100807.69;1999802;29;47372;-59
2022/06/03 06:02:04;;;;;;;;;5.75;5.75;;;;;21.18;38.64;100804.88;1979635;29;46272;-59
2022/06/03 06:03:13;;;;;;;;;6.75;5.75;;;;;21.17;38.64;100806.72;1984696;29;48191;-59
2022/06/03 06:04:24;;;;;;;;;5.50;5.00;;;;;21.18;39.10;100804.88;1984126;29;48212;-59
2022/06/03 06:05:50;;;;;;;;;7.25;6.75;;;;;21.18;39.26;100810.28;1983979;29;48202;-59
2022/06/03 06:07:08;;;;;;;;;7.00;7.00;;;;;21.20;38.62;100812.88;1984512;29;48039;-60
2022/06/03 06:08:18;;;;;;;;;6.75;6.75;;;;;21.22;39.39;100810.97;1984046;29;47855;-60
2022/06/03 06:09:39;;;;;;;;;5.00;4.75;;;;;21.20;39.48;100818.28;1981153;29;48001;-59
2022/06/03 06:10:48;;;;;;;;;5.75;5.00;;;;;21.21;39.08;100814.59;1979126;29;47989;-61
2022/06/03 06:12:26;;;;;;;;;7.50;7.00;;;;;21.22;39.12;100813.66;1983933;29;48243;-58
2022/06/03 06:14:07;;;;;;;;;7.40;7.40;;;;;21.21;39.13;100823.56;1984613;29;48086;-60
2022/06/03 06:15:29;;;;;;;;;8.75;7.25;;;;;21.20;39.17;100815.56;1988075;29;47890;-57
2022/06/03 06:16:43;;;;;;;;;7.00;6.75;;;;;21.21;39.52;100825.41;2000792;29;47823;-59
2022/06/03 06:17:58;;;;;;;;;8.75;8.50;;;;;21.23;39.84;100823.50;2010865;29;47753;-59
2022/06/03 06:19:04;;;;;;;;;8.50;8.50;;;;;21.23;39.83;100818.09;2010421;29;47647;-61
2022/06/03 06:20:16;;;;;;;;;8.20;8.20;;;;;21.23;39.41;100818.97;2013274;29;47784;-60
2022/06/03 06:21:53;;;;;;;;;10.60;8.80;;;;;21.26;39.58;100823.31;2007816;29;47813;-59
2022/06/03 06:23:02;;;;;;;;;6.60;6.60;;;;;21.26;39.38;100826.88;2009384;29;47573;-58
2022/06/03 06:24:21;;;;;;;;;7.00;6.40;;;;;21.25;39.40;100819.75;2008286;29;47351;-59
2022/06/03 06:25:37;;;;;;;;;9.00;9.00;;;;;21.25;39.43;100819.75;2002085;29;47815;-59
2022/06/03 06:27:09;;;;;;;;;8.60;8.20;;;;;21.27;39.99;100819.66;2003849;29;48265;-58